Galleon — 3ECQ6 — position and weather

sailwx.info

Track history (hours):
 
Tides and Currents Weather Stations Pressure Air Temp Water Temp Dewpoint Dewpoint Depression Visibility Wind Speed Wind Dir Waves Ship Positions

Galleon

Last reported at 2018-Apr-07 16:09 UTC. Time now 2018-Apr-25 02:34 UTC.
Position N 34°19' E 130°44'.
Warning: this ship's position is 17 days out of date.

Length 170 m; draft 5.7 m.

Type: Cargo ship. MMSI: 371605000.

Date/timePositionNaut miles runAvg speedWind from/ knotsBaromVisibWave heightAir tempDewpointWater temp
2018-Apr-07 16:09N 34°19' E 130°44'211.3
2018-Apr-07 16:00N 34°17' E 130°44'511.1
2018-Apr-07 15:30N 34°11' E 130°44'611.1
2018-Apr-07 14:57N 34°05' E 130°45'510.1
2018-Apr-07 14:28N 34°02' E 130°49'4 9.6
2018-Apr-07 14:00N 33°58' E 130°53'4 7.1
2018-Apr-07 13:28N 33°55' E 130°54'3 6.7
2018-Apr-07 13:00N 33°57' E 130°57'4 7.4
2018-Apr-07 12:30N 33°59' E 131°01'4 7.4
2018-Apr-07 12:00N 33°56' E 131°04'510.6
2018-Apr-07 11:30N 33°53' E 131°10'612.5
2018-Apr-07 11:00N 33°51' E 131°17'814.1
2018-Apr-07 10:26N 33°49' E 131°26'613.8
2018-Apr-07 10:00N 33°48' E 131°33'713.3
2018-Apr-07 09:30N 33°47' E 131°41'613.1
2018-Apr-07 09:00N 33°46' E 131°49'2112.5
2018-Apr-07 07:20N 33°43' E 132°13'913.8
2018-Apr-07 06:41N 33°46' E 132°24'314.1
2018-Apr-07 06:29N 33°47' E 132°27'813.7
2018-Apr-07 05:52N 33°52' E 132°35'513.3
2018-Apr-07 05:30N 33°56' E 132°39'612.9
2018-Apr-07 05:00N 34°00' E 132°45'  
2018-Apr-04 07:37N 34°02' E 132°47'112.0
2018-Apr-04 07:30N 34°01' E 132°46'611.6
2018-Apr-04 07:00N 33°57' E 132°42'611.8
2018-Apr-04 06:30N 33°53' E 132°36'712.8
2018-Apr-04 05:58N 33°51' E 132°28'612.6
2018-Apr-04 05:30N 33°50' E 132°21'713.2
2018-Apr-04 04:56N 33°50' E 132°12'613.1
2018-Apr-04 04:29N 33°47' E 132°06'613.3
2018-Apr-04 04:00N 33°45' E 131°58'713.8
2018-Apr-04 03:30N 33°45' E 131°50'713.8
2018-Apr-04 03:00N 33°46' E 131°42'714.0
2018-Apr-04 02:30N 33°47' E 131°34'713.6
2018-Apr-04 02:00N 33°49' E 131°26'713.3
2018-Apr-04 01:30N 33°50' E 131°18'612.3
2018-Apr-04 01:00N 33°52' E 131°11'510.7
2018-Apr-04 00:30N 33°55' E 131°06'5 9.3
2018-Apr-04 00:00N 33°58' E 131°01'4 7.6
2018-Apr-03 23:30N 33°57' E 130°57'4 7.4
2018-Apr-03 23:00N 33°55' E 130°53'4 8.4
2018-Apr-03 22:30N 33°59' E 130°52'4 7.7
2018-Apr-03 22:00N 34°02' E 130°49'3 6.6
2018-Apr-03 21:30N 34°04' E 130°46'5 9.1
2018-Apr-03 20:59N 34°09' E 130°44'511.1
2018-Apr-03 20:30N 34°14' E 130°43'510.9
2018-Apr-03 20:00N 34°19' E 130°43'510.1
2018-Apr-03 19:30N 34°24' E 130°44'510.5
2018-Apr-03 19:00N 34°29' E 130°47'510.6
2018-Apr-03 18:30N 34°34' E 130°49'610.7
2018-Apr-03 17:59N 34°39' E 130°51'  
Track history (hours):
 
Tides and Currents Weather Stations Pressure Air Temp Water Temp Dewpoint Dewpoint Depression Visibility Wind Speed Wind Dir Waves Ship Positions

Galleon

Last reported at 2018-Apr-07 16:09 UTC. Time now 2018-Apr-25 02:34 UTC.
Position N 34°19' E 130°44'.
Warning: this ship's position is 17 days out of date.

Length 170 m; draft 5.7 m.

Type: Cargo ship. MMSI: 371605000.

Date/timePositionNaut miles runAvg speedWind from/ knotsBaromVisibWave heightAir tempDewpointWater temp
2018-Apr-07 16:09N 34°19' E 130°44'211.3
2018-Apr-07 16:00N 34°17' E 130°44'511.1
2018-Apr-07 15:30N 34°11' E 130°44'611.1
2018-Apr-07 14:57N 34°05' E 130°45'510.1
2018-Apr-07 14:28N 34°02' E 130°49'4 9.6
2018-Apr-07 14:00N 33°58' E 130°53'4 7.1
2018-Apr-07 13:28N 33°55' E 130°54'3 6.7
2018-Apr-07 13:00N 33°57' E 130°57'4 7.4
2018-Apr-07 12:30N 33°59' E 131°01'4 7.4
2018-Apr-07 12:00N 33°56' E 131°04'510.6
2018-Apr-07 11:30N 33°53' E 131°10'612.5
2018-Apr-07 11:00N 33°51' E 131°17'814.1
2018-Apr-07 10:26N 33°49' E 131°26'613.8
2018-Apr-07 10:00N 33°48' E 131°33'713.3
2018-Apr-07 09:30N 33°47' E 131°41'613.1
2018-Apr-07 09:00N 33°46' E 131°49'2112.5
2018-Apr-07 07:20N 33°43' E 132°13'913.8
2018-Apr-07 06:41N 33°46' E 132°24'314.1
2018-Apr-07 06:29N 33°47' E 132°27'813.7
2018-Apr-07 05:52N 33°52' E 132°35'513.3
2018-Apr-07 05:30N 33°56' E 132°39'612.9
2018-Apr-07 05:00N 34°00' E 132°45'  
2018-Apr-04 07:37N 34°02' E 132°47'112.0
2018-Apr-04 07:30N 34°01' E 132°46'611.6
2018-Apr-04 07:00N 33°57' E 132°42'611.8
2018-Apr-04 06:30N 33°53' E 132°36'712.8
2018-Apr-04 05:58N 33°51' E 132°28'612.6
2018-Apr-04 05:30N 33°50' E 132°21'713.2
2018-Apr-04 04:56N 33°50' E 132°12'613.1
2018-Apr-04 04:29N 33°47' E 132°06'613.3
2018-Apr-04 04:00N 33°45' E 131°58'713.8
2018-Apr-04 03:30N 33°45' E 131°50'713.8
2018-Apr-04 03:00N 33°46' E 131°42'714.0
2018-Apr-04 02:30N 33°47' E 131°34'713.6
2018-Apr-04 02:00N 33°49' E 131°26'713.3
2018-Apr-04 01:30N 33°50' E 131°18'612.3
2018-Apr-04 01:00N 33°52' E 131°11'510.7
2018-Apr-04 00:30N 33°55' E 131°06'5 9.3
2018-Apr-04 00:00N 33°58' E 131°01'4 7.6
2018-Apr-03 23:30N 33°57' E 130°57'4 7.4
2018-Apr-03 23:00N 33°55' E 130°53'4 8.4
2018-Apr-03 22:30N 33°59' E 130°52'4 7.7
2018-Apr-03 22:00N 34°02' E 130°49'3 6.6
2018-Apr-03 21:30N 34°04' E 130°46'5 9.1
2018-Apr-03 20:59N 34°09' E 130°44'511.1
2018-Apr-03 20:30N 34°14' E 130°43'510.9
2018-Apr-03 20:00N 34°19' E 130°43'510.1
2018-Apr-03 19:30N 34°24' E 130°44'510.5
2018-Apr-03 19:00N 34°29' E 130°47'510.6
2018-Apr-03 18:30N 34°34' E 130°49'610.7
2018-Apr-03 17:59N 34°39' E 130°51'  

Dump ship's entire track history